createdAt,value
2018-02-21T00:01:15.227Z,9.30
2018-02-21T00:03:42.770Z,7.57
2018-02-21T00:06:10.366Z,7.17
2018-02-21T00:08:37.924Z,8.83
2018-02-21T00:11:05.476Z,6.57
2018-02-21T00:13:33.084Z,12.17
2018-02-21T00:16:00.697Z,7.73
2018-02-21T00:18:28.280Z,8.70
2018-02-21T00:20:55.870Z,8.20
2018-02-21T00:23:24.234Z,6.50
2018-02-21T00:25:51.847Z,9.33
2018-02-21T00:28:19.443Z,7.90
2018-02-21T00:30:46.999Z,4.77
2018-02-21T00:33:14.578Z,8.07
2018-02-21T00:35:42.178Z,5.73
2018-02-21T00:38:09.751Z,6.37
2018-02-21T00:40:37.363Z,8.63
2018-02-21T00:43:04.953Z,8.00
2018-02-21T00:45:32.535Z,6.20
2018-02-21T00:48:00.154Z,6.90
2018-02-21T00:50:27.735Z,6.67
2018-02-21T00:52:55.299Z,9.47
2018-02-21T00:55:23.648Z,8.83
2018-02-21T00:57:51.232Z,8.03
2018-02-21T01:00:18.831Z,7.13
2018-02-21T01:02:46.391Z,6.97
2018-02-21T01:05:13.994Z,7.97
2018-02-21T01:07:41.610Z,11.23
2018-02-21T01:10:09.174Z,11.97
2018-02-21T01:12:37.513Z,6.20
2018-02-21T01:15:05.091Z,12.30
2018-02-21T01:17:32.683Z,6.10
2018-02-21T01:20:00.246Z,6.07
2018-02-21T01:22:27.866Z,9.87
2018-02-21T01:24:55.458Z,6.50
2018-02-21T01:27:23.073Z,6.77
2018-02-21T01:29:50.640Z,11.43
2018-02-21T01:32:18.226Z,7.50
2018-02-21T01:34:46.593Z,7.83
2018-02-21T01:37:14.186Z,9.37
2018-02-21T01:39:41.782Z,4.70
2018-02-21T01:42:09.363Z,7.83
2018-02-21T01:44:38.154Z,10.03
2018-02-21T01:47:05.754Z,9.27
2018-02-21T01:49:33.414Z,4.30
2018-02-21T01:52:01.018Z,11.27
2018-02-21T01:54:28.636Z,9.10
2018-02-21T01:56:56.222Z,5.20
2018-02-21T01:59:24.577Z,7.83
2018-02-21T02:01:52.138Z,8.63
2018-02-21T02:04:19.743Z,7.13
2018-02-21T02:06:47.338Z,5.63
2018-02-21T02:09:14.954Z,5.30
2018-02-21T02:11:43.269Z,6.50
2018-02-21T02:14:10.867Z,9.37
2018-02-21T02:16:38.472Z,5.50
2018-02-21T02:19:06.059Z,8.73
2018-02-21T02:21:33.632Z,10.87
2018-02-21T02:24:01.222Z,7.77
2018-02-21T02:26:28.826Z,11.43
2018-02-21T02:28:57.178Z,8.27
2018-02-21T02:31:24.730Z,7.33
2018-02-21T02:33:52.295Z,6.80
2018-02-21T02:36:19.882Z,7.43
2018-02-21T02:38:59.990Z,8.47
2018-02-21T02:41:27.588Z,5.37
2018-02-21T02:43:55.168Z,6.37
2018-02-21T02:46:23.510Z,6.33
2018-02-21T02:48:51.108Z,5.87
2018-02-21T02:51:19.546Z,3.77
2018-02-21T02:53:47.142Z,5.83
2018-02-21T02:56:14.699Z,7.10
2018-02-21T02:58:42.295Z,5.57
2018-02-21T03:01:09.858Z,6.40
2018-02-21T03:03:38.216Z,6.53
2018-02-21T03:06:05.812Z,5.47
2018-02-21T03:08:33.410Z,4.93
2018-02-21T03:11:01.001Z,6.60
2018-02-21T03:13:29.361Z,5.47
2018-02-21T03:15:56.953Z,4.10
2018-02-21T03:18:24.535Z,4.93
2018-02-21T03:20:52.121Z,5.30
2018-02-21T03:23:19.741Z,5.53
2018-02-21T03:25:47.344Z,4.53
2018-02-21T03:28:14.950Z,6.00
2018-02-21T03:30:42.506Z,7.70
2018-02-21T03:33:10.102Z,5.90
2018-02-21T03:35:37.741Z,6.83
2018-02-21T03:38:05.346Z,7.07
2018-02-21T03:40:32.945Z,7.17
2018-02-21T03:43:00.550Z,9.20
2018-02-21T03:45:28.115Z,5.33
2018-02-21T03:47:56.435Z,5.37
2018-02-21T03:50:24.031Z,5.67
2018-02-21T03:52:51.608Z,4.80
2018-02-21T03:55:19.178Z,6.20
2018-02-21T03:57:47.524Z,6.23
2018-02-21T04:00:15.109Z,6.43
2018-02-21T04:02:42.670Z,6.83
2018-02-21T04:05:10.258Z,5.17
2018-02-21T04:07:37.850Z,4.50
2018-02-21T04:10:05.427Z,6.30
2018-02-21T04:12:32.994Z,5.60
2018-02-21T04:15:00.581Z,5.07
2018-02-21T04:17:29.670Z,5.93
2018-02-21T04:19:57.245Z,7.13
2018-02-21T04:22:24.809Z,5.33
2018-02-21T04:24:52.388Z,7.57
2018-02-21T04:27:20.742Z,4.67
2018-02-21T04:29:48.300Z,8.30
2018-02-21T04:32:15.858Z,5.57
2018-02-21T04:34:43.459Z,5.10
2018-02-21T04:37:11.786Z,5.60
2018-02-21T04:39:39.371Z,7.17
2018-02-21T04:42:06.973Z,8.60
2018-02-21T04:44:34.546Z,6.10
2018-02-21T04:47:02.135Z,5.97
2018-02-21T04:49:29.757Z,8.07
2018-02-21T04:51:57.363Z,7.77
2018-02-21T04:54:31.594Z,8.20
2018-02-21T04:57:04.877Z,6.33
2018-02-21T05:02:32.939Z,6.57
2018-02-21T05:05:00.524Z,8.87
2018-02-21T05:07:28.153Z,5.87
2018-02-21T05:09:56.502Z,7.20
2018-02-21T05:12:24.060Z,6.83
2018-02-21T05:14:51.642Z,6.07
2018-02-21T05:17:19.197Z,7.27
2018-02-21T05:19:46.785Z,9.00
2018-02-21T05:22:14.408Z,5.93
2018-02-21T05:24:42.024Z,6.90
2018-02-21T05:27:10.348Z,7.40
2018-02-21T05:29:37.923Z,7.77
2018-02-21T05:32:05.496Z,9.30
2018-02-21T05:34:33.062Z,12.60
2018-02-21T05:37:00.685Z,13.83
2018-02-21T05:39:28.282Z,13.70
2018-02-21T05:41:56.163Z,15.13
2018-02-21T05:44:24.552Z,15.00
2018-02-21T05:46:52.918Z,16.90
2018-02-21T05:49:20.553Z,16.20
2018-02-21T05:51:48.175Z,20.20
2018-02-21T05:54:16.046Z,19.67
2018-02-21T05:56:44.405Z,20.43
2018-02-21T05:59:11.998Z,19.70
2018-02-21T06:01:39.574Z,19.40
2018-02-21T06:04:07.134Z,21.20
2018-02-21T06:06:34.798Z,19.27
2018-02-21T06:09:03.423Z,19.37
2018-02-21T06:11:30.993Z,18.93
2018-02-21T06:13:58.571Z,16.47
2018-02-21T06:16:26.170Z,19.80
2018-02-21T06:18:53.807Z,20.03
2018-02-21T06:21:21.375Z,17.00
2018-02-21T06:23:49.746Z,18.00
2018-02-21T06:26:17.421Z,21.33
2018-02-21T06:28:44.986Z,16.23
2018-02-21T06:31:13.349Z,17.80
2018-02-21T06:33:40.924Z,19.90
2018-02-21T06:36:09.304Z,19.47
2018-02-21T06:38:36.889Z,17.20
2018-02-21T06:41:04.486Z,20.23
2018-02-21T06:43:32.070Z,22.60
2018-02-21T06:45:59.673Z,17.03
2018-02-21T06:48:27.294Z,17.80
2018-02-21T06:50:54.896Z,19.13
2018-02-21T06:53:24.042Z,19.03
2018-02-21T06:55:54.510Z,20.10
2018-02-21T06:58:25.226Z,18.47
2018-02-21T07:00:52.917Z,18.73
2018-02-21T07:03:23.679Z,17.73
2018-02-21T07:05:53.422Z,14.87
2018-02-21T07:08:22.686Z,15.47
2018-02-21T07:10:50.301Z,17.40
2018-02-21T07:13:17.885Z,16.87
2018-02-21T07:15:45.611Z,17.13
2018-02-21T07:18:13.271Z,16.53
2018-02-21T07:20:41.669Z,14.20
2018-02-21T07:23:09.319Z,11.60
2018-02-21T07:25:36.888Z,10.63
2018-02-21T07:28:04.515Z,14.77
2018-02-21T07:30:32.139Z,17.90
2018-02-21T07:33:00.629Z,19.47
2018-02-21T07:35:28.260Z,13.93
2018-02-21T07:37:55.819Z,13.17
2018-02-21T07:40:23.461Z,13.63
2018-02-21T07:42:51.075Z,15.37
2018-02-21T07:45:18.688Z,17.17
2018-02-21T07:47:46.291Z,19.60
2018-02-21T07:50:14.693Z,22.23
2018-02-21T07:52:42.310Z,21.13
2018-02-21T07:55:09.948Z,22.30
2018-02-21T07:57:37.990Z,26.47
2018-02-21T08:00:05.578Z,23.17
2018-02-21T08:02:33.167Z,23.17
2018-02-21T08:05:00.779Z,23.93
2018-02-21T08:07:29.134Z,25.57
2018-02-21T08:09:56.719Z,22.63
2018-02-21T08:12:24.317Z,21.27
2018-02-21T08:14:52.653Z,18.83
2018-02-21T08:17:20.242Z,22.37
2018-02-21T08:19:48.467Z,19.70
2018-02-21T08:22:16.923Z,22.67
2018-02-21T08:24:44.496Z,20.20
2018-02-21T08:27:12.084Z,23.57
2018-02-21T08:29:39.654Z,17.63
2018-02-21T08:32:07.318Z,15.87
2018-02-21T08:34:34.935Z,14.30
2018-02-21T08:37:02.511Z,14.67
2018-02-21T08:39:30.099Z,19.00
2018-02-21T08:41:57.659Z,19.23
2018-02-21T08:44:25.263Z,21.97
2018-02-21T08:46:52.826Z,20.07
2018-02-21T08:49:20.419Z,21.07
2018-02-21T08:51:48.010Z,22.17
2018-02-21T08:54:16.183Z,24.30
2018-02-21T08:56:43.949Z,19.93
2018-02-21T08:59:11.534Z,16.63
2018-02-21T09:01:39.096Z,19.90
2018-02-21T09:04:06.683Z,24.10
2018-02-21T09:06:34.310Z,21.93
2018-02-21T09:09:01.896Z,20.43
2018-02-21T09:11:29.481Z,21.80
2018-02-21T09:13:57.050Z,19.07
2018-02-21T09:16:25.468Z,16.43
2018-02-21T09:18:53.029Z,22.50
2018-02-21T09:21:21.220Z,22.07
2018-02-21T09:23:48.773Z,20.60
2018-02-21T09:26:16.372Z,21.03
2018-02-21T09:28:43.938Z,21.83
2018-02-21T09:31:11.519Z,23.30
2018-02-21T09:33:39.886Z,19.03
2018-02-21T09:36:08.222Z,17.83
2018-02-21T09:38:35.837Z,24.73
2018-02-21T09:41:03.398Z,21.27
2018-02-21T09:43:31.779Z,22.00
2018-02-21T09:45:59.355Z,19.53
2018-02-21T09:48:27.761Z,21.07
2018-02-21T09:50:55.355Z,21.70
2018-02-21T09:53:22.919Z,22.37
2018-02-21T09:55:50.527Z,24.00
2018-02-21T09:58:18.104Z,24.23
2018-02-21T10:00:45.679Z,23.07
2018-02-21T10:03:13.299Z,20.07
2018-02-21T10:05:40.888Z,21.77
2018-02-21T10:08:08.888Z,23.07
2018-02-21T10:10:36.491Z,27.33
2018-02-21T10:13:04.099Z,25.63
2018-02-21T10:15:31.765Z,23.27
2018-02-21T10:17:59.357Z,26.10
2018-02-21T10:20:26.922Z,26.13
2018-02-21T10:22:54.514Z,22.93
2018-02-21T10:25:22.075Z,23.67
2018-02-21T10:27:49.668Z,24.83
2018-02-21T10:30:17.238Z,26.77
2018-02-21T10:32:44.842Z,23.43
2018-02-21T10:35:12.413Z,22.90
2018-02-21T10:37:40.051Z,24.03
2018-02-21T10:40:07.632Z,23.80
2018-02-21T10:42:35.217Z,19.97
2018-02-21T10:45:03.631Z,26.97
2018-02-21T10:47:31.244Z,25.00
2018-02-21T10:49:58.829Z,30.50
2018-02-21T10:52:28.054Z,30.23
2018-02-21T10:54:55.640Z,27.13
2018-02-21T10:57:23.218Z,20.77
2018-02-21T10:59:50.825Z,26.40
2018-02-21T11:02:18.409Z,26.37
2018-02-21T11:04:46.004Z,27.20
2018-02-21T11:07:13.613Z,26.83
2018-02-21T11:09:41.940Z,25.57
2018-02-21T11:12:09.640Z,29.57
2018-02-21T11:14:37.229Z,25.40
2018-02-21T11:17:05.596Z,29.63
2018-02-21T11:19:33.200Z,26.97
2018-02-21T11:22:00.793Z,26.10
2018-02-21T11:24:28.405Z,28.60
2018-02-21T11:26:56.008Z,25.83
2018-02-21T11:29:23.576Z,29.20
2018-02-21T11:31:51.151Z,24.70
2018-02-21T11:34:18.750Z,25.77
2018-02-21T11:36:47.087Z,23.17
2018-02-21T11:39:14.643Z,29.17
2018-02-21T11:41:42.238Z,28.00
2018-02-21T11:44:09.961Z,30.57
2018-02-21T11:46:37.693Z,26.07
2018-02-21T11:49:06.083Z,26.00
2018-02-21T11:51:33.664Z,29.90
2018-02-21T11:54:01.275Z,27.37
2018-02-21T11:56:28.890Z,27.23
2018-02-21T11:58:56.464Z,26.90
2018-02-21T12:01:24.027Z,31.23
2018-02-21T12:03:51.639Z,30.73
2018-02-21T12:06:19.209Z,27.47
2018-02-21T12:08:47.553Z,30.20
2018-02-21T12:11:15.149Z,25.77
2018-02-21T12:13:43.507Z,23.83
2018-02-21T12:16:11.098Z,25.90
2018-02-21T12:18:39.430Z,26.97
2018-02-21T12:21:07.047Z,28.00
2018-02-21T12:23:34.658Z,28.17
2018-02-21T12:26:02.263Z,25.67
2018-02-21T12:28:29.844Z,27.67
2018-02-21T12:30:57.470Z,26.10
2018-02-21T12:33:25.874Z,28.30
2018-02-21T12:35:53.489Z,26.63
2018-02-21T12:38:21.094Z,31.40
2018-02-21T12:43:49.481Z,26.50
2018-02-21T12:46:17.085Z,27.10
2018-02-21T12:48:44.684Z,23.53
2018-02-21T12:51:12.244Z,24.67
2018-02-21T12:53:39.862Z,21.53
2018-02-21T12:56:08.208Z,18.70
2018-02-21T12:58:35.798Z,20.73
2018-02-21T13:01:04.190Z,23.53
2018-02-21T13:03:31.768Z,26.17
2018-02-21T13:05:59.412Z,18.57
2018-02-21T13:08:27.007Z,21.03
2018-02-21T13:10:54.636Z,23.83
2018-02-21T13:13:22.219Z,27.77
2018-02-21T13:15:49.805Z,23.70
2018-02-21T13:18:17.461Z,26.30
2018-02-21T13:20:45.051Z,24.13
2018-02-21T13:23:12.646Z,23.83
2018-02-21T13:25:41.030Z,22.37
2018-02-21T13:28:08.618Z,23.93
2018-02-21T13:30:36.211Z,31.80
2018-02-21T13:33:03.836Z,20.70
2018-02-21T13:35:31.435Z,20.77
2018-02-21T13:37:59.023Z,26.53
2018-02-21T13:40:26.621Z,29.20
2018-02-21T13:42:54.971Z,22.47
2018-02-21T13:45:22.590Z,25.90
2018-02-21T13:47:50.201Z,26.10
2018-02-21T13:50:18.362Z,26.93
2018-02-21T13:52:45.948Z,23.63
2018-02-21T13:55:14.478Z,22.03
2018-02-21T13:57:42.087Z,20.23
2018-02-21T14:00:09.689Z,24.20
2018-02-21T14:02:37.297Z,26.63
2018-02-21T14:05:04.922Z,24.60
2018-02-21T14:07:32.502Z,22.60
2018-02-21T14:10:00.089Z,26.03
2018-02-21T14:12:27.699Z,24.77
2018-02-21T14:14:55.310Z,23.23
2018-02-21T14:17:22.887Z,20.87
2018-02-21T14:19:50.491Z,17.60
2018-02-21T14:22:18.070Z,20.93
2018-02-21T14:24:45.703Z,16.73
2018-02-21T14:27:13.313Z,12.87
2018-02-21T14:29:40.868Z,14.60
2018-02-21T14:32:08.453Z,18.47
2018-02-21T14:34:36.046Z,15.80
2018-02-21T14:37:04.398Z,18.03
2018-02-21T14:39:32.013Z,15.53
2018-02-21T14:41:59.585Z,23.47
2018-02-21T14:44:27.278Z,18.77
2018-02-21T14:46:54.905Z,16.50
2018-02-21T14:49:22.950Z,23.17
2018-02-21T14:51:52.260Z,19.77
2018-02-21T14:54:19.854Z,16.93
2018-02-21T14:56:47.462Z,14.87
2018-02-21T14:59:15.051Z,15.43
2018-02-21T15:01:42.626Z,19.80
2018-02-21T15:04:10.989Z,17.30
2018-02-21T15:06:38.611Z,20.83
2018-02-21T15:09:06.212Z,22.60
2018-02-21T15:11:33.785Z,18.97
2018-02-21T15:14:01.384Z,18.33
2018-02-21T15:16:28.954Z,17.43
2018-02-21T15:18:56.734Z,16.73
2018-02-21T15:21:24.306Z,17.77
2018-02-21T15:23:51.866Z,18.30
2018-02-21T15:26:19.459Z,21.40
2018-02-21T15:28:47.825Z,19.00
2018-02-21T15:31:15.423Z,18.83
2018-02-21T15:33:43.738Z,15.87
2018-02-21T15:36:11.351Z,13.23
2018-02-21T15:38:39.884Z,14.77
2018-02-21T15:41:07.470Z,11.47
2018-02-21T15:43:35.084Z,12.90
2018-02-21T15:46:02.651Z,11.20
2018-02-21T15:48:30.283Z,13.30
2018-02-21T15:50:58.658Z,13.33
2018-02-21T15:53:27.764Z,11.47
2018-02-21T15:55:56.153Z,14.67
2018-02-21T15:58:23.766Z,15.83
2018-02-21T16:00:51.342Z,11.90
2018-02-21T16:03:19.095Z,15.63
2018-02-21T16:05:46.721Z,13.97
2018-02-21T16:08:14.315Z,17.73
2018-02-21T16:10:41.977Z,15.07
2018-02-21T16:13:09.555Z,12.13
2018-02-21T16:15:37.189Z,10.63
2018-02-21T16:18:04.757Z,11.37
2018-02-21T16:20:32.374Z,13.70
2018-02-21T16:23:00.103Z,13.20
2018-02-21T16:25:27.743Z,11.47
2018-02-21T16:27:55.348Z,12.70
2018-02-21T16:30:23.054Z,12.60
2018-02-21T16:32:50.674Z,16.37
2018-02-21T16:35:19.881Z,11.60
2018-02-21T16:37:47.461Z,14.17
2018-02-21T16:40:15.129Z,13.23
2018-02-21T16:42:42.732Z,9.50
2018-02-21T16:45:10.313Z,11.80
2018-02-21T16:47:38.202Z,11.93
2018-02-21T16:50:05.767Z,12.97
2018-02-21T16:52:33.363Z,11.33
2018-02-21T16:55:01.942Z,9.27
2018-02-21T16:57:29.537Z,10.07
2018-02-21T16:59:57.129Z,12.33
2018-02-21T17:02:24.732Z,13.03
2018-02-21T17:04:52.323Z,15.10
2018-02-21T17:07:19.996Z,14.83
2018-02-21T17:09:47.605Z,10.67
2018-02-21T17:12:15.170Z,12.33
2018-02-21T17:14:42.788Z,13.03
2018-02-21T17:17:10.384Z,15.47
2018-02-21T17:19:37.990Z,14.03
2018-02-21T17:22:05.590Z,12.57
2018-02-21T17:24:33.182Z,12.03
2018-02-21T17:27:00.780Z,13.27
2018-02-21T17:29:28.342Z,12.13
2018-02-21T17:31:56.712Z,10.93
2018-02-21T17:34:24.525Z,12.27
2018-02-21T17:36:52.161Z,14.53
2018-02-21T17:39:19.770Z,13.93
2018-02-21T17:41:47.374Z,15.40
2018-02-21T17:44:15.078Z,12.27
2018-02-21T17:46:42.679Z,18.53
2018-02-21T17:49:12.101Z,13.60
2018-02-21T17:51:40.906Z,15.13
2018-02-21T17:54:08.520Z,14.37
2018-02-21T17:56:36.092Z,14.93
2018-02-21T17:59:03.786Z,13.43
2018-02-21T18:01:32.115Z,14.87
2018-02-21T18:03:59.749Z,13.77
2018-02-21T18:06:27.311Z,15.53
2018-02-21T18:08:55.002Z,13.67
2018-02-21T18:11:22.596Z,15.07
2018-02-21T18:13:50.194Z,15.57
2018-02-21T18:16:17.781Z,15.23
2018-02-21T18:18:45.377Z,15.00
2018-02-21T18:21:18.555Z,16.87
2018-02-21T18:23:46.154Z,15.03
2018-02-21T18:26:13.757Z,15.70
2018-02-21T18:28:41.328Z,18.40
2018-02-21T18:31:08.923Z,17.70
2018-02-21T18:33:36.507Z,18.40
2018-02-21T18:36:04.855Z,17.50
2018-02-21T18:38:33.357Z,18.23
2018-02-21T18:41:00.943Z,17.43
2018-02-21T18:43:28.566Z,18.17
2018-02-21T18:45:56.342Z,18.70
2018-02-21T18:48:23.923Z,21.80
2018-02-21T18:50:53.058Z,22.00
2018-02-21T18:53:21.334Z,20.13
2018-02-21T18:55:48.968Z,18.53
2018-02-21T18:58:16.684Z,20.57
2018-02-21T19:00:44.317Z,16.50
2018-02-21T19:03:12.127Z,23.13
2018-02-21T19:05:40.513Z,23.80
2018-02-21T19:08:08.170Z,21.03
2018-02-21T19:10:35.782Z,19.40
2018-02-21T19:13:03.403Z,22.60
2018-02-21T19:15:31.020Z,22.17
2018-02-21T19:17:59.397Z,23.20
2018-02-21T19:20:27.012Z,26.73
2018-02-21T19:22:54.639Z,22.07
2018-02-21T19:25:22.990Z,21.93
2018-02-21T19:27:50.928Z,24.53
2018-02-21T19:30:18.534Z,31.47
2018-02-21T19:32:46.163Z,24.10
2018-02-21T19:35:13.768Z,22.30
2018-02-21T19:37:42.162Z,24.03
2018-02-21T19:40:09.730Z,20.80
2018-02-21T19:42:37.312Z,20.30
2018-02-21T19:45:04.943Z,22.23
2018-02-21T19:47:32.545Z,24.07
2018-02-21T19:50:00.150Z,21.80
2018-02-21T19:52:27.894Z,21.73
2018-02-21T19:54:55.949Z,18.40
2018-02-21T19:57:23.537Z,14.33
2018-02-21T19:59:51.267Z,15.53
2018-02-21T20:02:18.879Z,21.70
2018-02-21T20:04:46.611Z,16.73
2018-02-21T20:07:14.208Z,17.93
2018-02-21T20:09:43.098Z,19.73
2018-02-21T20:12:10.716Z,19.53
2018-02-21T20:14:40.641Z,18.40
2018-02-21T20:17:08.238Z,19.90
2018-02-21T20:19:35.831Z,20.03
2018-02-21T20:22:04.266Z,19.17
2018-02-21T20:24:31.862Z,15.43
2018-02-21T20:26:59.458Z,16.53
2018-02-21T20:29:27.067Z,16.93
2018-02-21T20:31:54.690Z,20.27
2018-02-21T20:34:23.027Z,20.47
2018-02-21T20:36:50.634Z,17.50
2018-02-21T20:39:18.222Z,16.70
2018-02-21T20:41:46.039Z,15.17
2018-02-21T20:44:14.400Z,19.37
2018-02-21T20:46:42.000Z,15.63
2018-02-21T20:49:11.309Z,17.10
2018-02-21T20:51:38.918Z,19.93
2018-02-21T20:54:06.520Z,18.10
2018-02-21T20:56:34.177Z,17.30
2018-02-21T20:59:02.540Z,16.43
2018-02-21T21:01:30.378Z,19.43
2018-02-21T21:03:58.213Z,16.50
2018-02-21T21:06:25.844Z,21.87
2018-02-21T21:08:53.449Z,18.57
2018-02-21T21:11:21.059Z,14.40
2018-02-21T21:13:49.035Z,18.67
2018-02-21T21:16:17.697Z,18.20
2018-02-21T21:18:45.420Z,15.77
2018-02-21T21:21:13.027Z,16.27
2018-02-21T21:23:45.740Z,16.57
2018-02-21T21:26:14.129Z,14.87
2018-02-21T21:28:41.726Z,12.50
2018-02-21T21:31:10.366Z,11.90
2018-02-21T21:33:38.046Z,16.03
2018-02-21T21:36:05.646Z,14.43
2018-02-21T21:38:33.387Z,13.57
2018-02-21T21:41:01.729Z,19.40
2018-02-21T21:43:29.365Z,15.80
2018-02-21T21:45:57.143Z,13.33
2018-02-21T21:48:24.746Z,16.63
2018-02-21T21:50:53.381Z,14.23
2018-02-21T21:53:21.018Z,12.57
2018-02-21T21:55:49.350Z,15.60
2018-02-21T21:58:16.932Z,15.00
2018-02-21T22:00:44.570Z,17.33
2018-02-21T22:03:12.156Z,13.80
2018-02-21T22:05:39.826Z,14.03
2018-02-21T22:08:07.426Z,14.40
2018-02-21T22:10:35.771Z,15.20
2018-02-21T22:13:03.400Z,17.10
2018-02-21T22:15:30.979Z,18.07
2018-02-21T22:17:58.558Z,16.67
2018-02-21T22:20:26.191Z,14.60
2018-02-21T22:22:54.562Z,16.10
2018-02-21T22:25:22.394Z,15.23
2018-02-21T22:27:50.111Z,18.80
2018-02-21T22:30:17.755Z,16.90
2018-02-21T22:32:45.332Z,18.13
2018-02-21T22:35:12.926Z,17.53
2018-02-21T22:37:40.506Z,18.37
2018-02-21T22:40:08.097Z,16.03
2018-02-21T22:42:35.710Z,16.50
2018-02-21T22:45:03.354Z,14.67
2018-02-21T22:47:30.952Z,13.53
2018-02-21T22:49:59.354Z,11.67
2018-02-21T22:52:27.681Z,11.17
2018-02-21T22:54:55.246Z,14.10
2018-02-21T22:57:22.859Z,11.87
2018-02-21T22:59:50.565Z,10.27
2018-02-21T23:02:18.182Z,11.53
2018-02-21T23:04:46.664Z,10.43
2018-02-21T23:07:14.260Z,9.93
2018-02-21T23:09:41.868Z,9.50
2018-02-21T23:12:09.512Z,10.47
2018-02-21T23:14:37.117Z,9.33
2018-02-21T23:17:05.485Z,10.97
2018-02-21T23:19:33.164Z,12.13
2018-02-21T23:22:01.514Z,9.43
2018-02-21T23:24:29.097Z,9.40
2018-02-21T23:26:56.958Z,10.17
2018-02-21T23:29:24.557Z,12.00
2018-02-21T23:31:52.198Z,12.20
2018-02-21T23:34:19.819Z,14.93
2018-02-21T23:36:47.420Z,10.90
2018-02-21T23:39:15.022Z,10.20
2018-02-21T23:41:42.640Z,8.90
2018-02-21T23:44:10.222Z,8.83
2018-02-21T23:46:38.568Z,7.53
2018-02-21T23:49:06.150Z,9.97
2018-02-21T23:51:33.760Z,12.60
2018-02-21T23:54:02.281Z,11.63
2018-02-21T23:56:29.842Z,9.60
2018-02-21T23:58:57.430Z,10.53
